Time;durP1;ratioP1;P1;durP2;ratioP2;P2;SDS_P1;SDS_P2;PMS_P1;PMS_P2;Temp;Humidity;BMP_temperature;BMP_pressure;BME280_temperature;BME280_humidity;BME280_pressure;Samples;Min_cycle;Max_cycle;Signal;HPM_P1;HPM_P2
2023/10/18 00:01:30;;;;;;;;;7.67;7.00;;;;;;;;5002125;28;47502;-40
2023/10/18 00:03:56;;;;;;;;;7.00;6.33;;;;;;;;5008936;28;45507;-40
2023/10/18 00:06:23;;;;;;;;;7.00;7.00;;;;;;;;5018295;28;45490;-40
2023/10/18 00:08:48;;;;;;;;;12.00;10.00;;;;;;;;5012907;28;45535;-40
2023/10/18 00:11:15;;;;;;;;;8.33;8.00;;;;;;;;5026165;28;46264;-40
2023/10/18 00:13:40;;;;;;;;;7.00;7.00;;;;;;;;5027819;28;45398;-40
2023/10/18 00:16:06;;;;;;;;;11.67;10.00;;;;;;;;5022364;28;45391;-40
2023/10/18 00:18:32;;;;;;;;;7.00;7.00;;;;;;;;5027500;28;45364;-41
2023/10/18 00:21:05;;;;;;;;;9.33;8.33;;;;;;;;5020785;28;46816;-40
2023/10/18 00:23:31;;;;;;;;;10.67;8.00;;;;;;;;5027735;28;45467;-41
2023/10/18 00:25:59;;;;;;;;;10.00;6.33;;;;;;;;5027417;28;45304;-40
2023/10/18 00:28:25;;;;;;;;;9.67;8.00;;;;;;;;5005109;28;45526;-40
2023/10/18 00:30:52;;;;;;;;;11.00;6.33;;;;;;;;5027759;28;45469;-40
2023/10/18 00:33:18;;;;;;;;;7.67;6.33;;;;;;;;5031104;28;45287;-40
2023/10/18 00:35:43;;;;;;;;;10.00;8.33;;;;;;;;5022720;28;45635;-40
2023/10/18 00:38:14;;;;;;;;;4.00;3.00;;;;;;;;5028375;28;45344;-40
2023/10/18 00:40:40;;;;;;;;;8.33;7.33;;;;;;;;5003832;28;46204;-40
2023/10/18 00:43:09;;;;;;;;;7.00;6.67;;;;;;;;5015086;28;45776;-40
2023/10/18 00:45:37;;;;;;;;;8.00;8.00;;;;;;;;4995792;28;45330;-40
2023/10/18 00:48:05;;;;;;;;;6.33;6.33;;;;;;;;5020480;28;45469;-40
2023/10/18 00:50:31;;;;;;;;;9.33;7.00;;;;;;;;5020728;28;46027;-40
2023/10/18 00:52:56;;;;;;;;;10.33;8.33;;;;;;;;5004292;28;45957;-40
2023/10/18 00:55:22;;;;;;;;;9.00;7.00;;;;;;;;5021315;28;45474;-40
2023/10/18 00:57:47;;;;;;;;;10.67;8.33;;;;;;;;5009058;28;46268;-40
2023/10/18 01:00:19;;;;;;;;;8.00;5.67;;;;;;;;5010124;28;46795;-40
2023/10/18 01:02:45;;;;;;;;;7.33;5.67;;;;;;;;5014953;28;45384;-40
2023/10/18 01:05:15;;;;;;;;;8.33;8.33;;;;;;;;5020764;28;45229;-40
2023/10/18 01:07:41;;;;;;;;;7.67;7.67;;;;;;;;5019223;28;45483;-40
2023/10/18 01:10:07;;;;;;;;;8.67;7.00;;;;;;;;5020822;28;46246;-40
2023/10/18 01:12:34;;;;;;;;;6.00;4.00;;;;;;;;5020375;28;45357;-39
2023/10/18 01:14:59;;;;;;;;;6.33;6.33;;;;;;;;5014952;28;45337;-39
2023/10/18 01:17:25;;;;;;;;;9.33;7.00;;;;;;;;5020642;28;45583;-39
2023/10/18 01:19:50;;;;;;;;;7.67;7.33;;;;;;;;5020624;28;47470;-39
2023/10/18 01:22:17;;;;;;;;;6.00;6.00;;;;;;;;5018835;28;45283;-39
2023/10/18 01:24:42;;;;;;;;;8.00;8.00;;;;;;;;5015206;28;45438;-39
2023/10/18 01:27:08;;;;;;;;;8.67;8.67;;;;;;;;5020095;28;45759;-40
2023/10/18 01:29:33;;;;;;;;;7.00;7.00;;;;;;;;5020521;28;46322;-39
2023/10/18 01:31:58;;;;;;;;;7.33;7.33;;;;;;;;5020264;28;45625;-40
2023/10/18 01:34:25;;;;;;;;;10.67;8.33;;;;;;;;5021821;28;45336;-39
2023/10/18 01:36:57;;;;;;;;;8.33;8.00;;;;;;;;5020030;28;45443;-40
2023/10/18 01:39:23;;;;;;;;;10.33;8.00;;;;;;;;5019624;28;45465;-39
2023/10/18 01:41:51;;;;;;;;;8.67;8.00;;;;;;;;4999111;28;45278;-40
2023/10/18 01:44:33;;;;;;;;;6.00;6.00;;;;;;;;5015135;28;45381;-39
2023/10/18 01:47:06;;;;;;;;;9.00;8.00;;;;;;;;5016215;28;45493;-39
2023/10/18 01:49:31;;;;;;;;;7.67;5.67;;;;;;;;5019836;28;46636;-39
2023/10/18 01:51:57;;;;;;;;;11.67;9.67;;;;;;;;5019393;28;45392;-39
2023/10/18 01:54:26;;;;;;;;;8.33;7.00;;;;;;;;5020301;28;45234;-39
2023/10/18 01:57:00;;;;;;;;;7.00;7.00;;;;;;;;5020278;28;45514;-39
2023/10/18 01:59:28;;;;;;;;;7.00;7.00;;;;;;;;5012994;28;46899;-40
2023/10/18 02:01:57;;;;;;;;;8.33;8.33;;;;;;;;4997599;28;45380;-39
2023/10/18 02:04:25;;;;;;;;;10.67;8.67;;;;;;;;5001855;28;45479;-39
2023/10/18 02:06:51;;;;;;;;;7.33;6.33;;;;;;;;5000601;28;45400;-40
2023/10/18 02:09:17;;;;;;;;;9.33;7.67;;;;;;;;5000958;28;45385;-40
2023/10/18 02:11:42;;;;;;;;;6.00;6.00;;;;;;;;5000684;28;45520;-40
2023/10/18 02:14:08;;;;;;;;;9.00;9.00;;;;;;;;5000955;28;45272;-40
2023/10/18 02:16:33;;;;;;;;;8.00;8.00;;;;;;;;5000343;28;45538;-39
2023/10/18 02:18:59;;;;;;;;;8.00;8.00;;;;;;;;5000358;28;45440;-39
2023/10/18 02:21:25;;;;;;;;;8.00;7.00;;;;;;;;4999726;28;45353;-39
2023/10/18 02:23:51;;;;;;;;;7.33;7.00;;;;;;;;4999588;28;45337;-40
2023/10/18 02:28:54;;;;;;;;;8.00;8.00;;;;;;;;4994634;28;45562;-40
2023/10/18 02:31:22;;;;;;;;;7.67;7.67;;;;;;;;4998874;28;45395;-39
2023/10/18 02:33:53;;;;;;;;;9.67;9.00;;;;;;;;5000663;28;45343;-40
2023/10/18 02:36:21;;;;;;;;;7.00;7.00;;;;;;;;5000118;28;45299;-40
2023/10/18 02:38:49;;;;;;;;;10.00;8.00;;;;;;;;5000525;28;46530;-40
2023/10/18 02:41:29;;;;;;;;;6.67;6.67;;;;;;;;4999390;28;45413;-39
2023/10/18 02:43:55;;;;;;;;;8.00;7.00;;;;;;;;5008136;28;45632;-40
2023/10/18 02:46:23;;;;;;;;;8.00;8.00;;;;;;;;5016053;28;45633;-39
2023/10/18 02:48:51;;;;;;;;;7.33;7.33;;;;;;;;5018188;28;45535;-39
2023/10/18 02:51:22;;;;;;;;;9.33;7.00;;;;;;;;5007359;28;45437;-40
2023/10/18 02:53:47;;;;;;;;;9.00;8.00;;;;;;;;5011569;28;45372;-39
2023/10/18 02:56:26;;;;;;;;;6.67;6.33;;;;;;;;5011842;28;45461;-40
2023/10/18 02:58:53;;;;;;;;;7.67;7.67;;;;;;;;5011264;28;45456;-39
2023/10/18 03:01:18;;;;;;;;;8.00;8.00;;;;;;;;5016261;28;45534;-39
2023/10/18 03:03:46;;;;;;;;;8.00;8.00;;;;;;;;4999912;28;45271;-39
2023/10/18 03:06:14;;;;;;;;;8.33;5.33;;;;;;;;5001129;28;45728;-40
2023/10/18 03:08:44;;;;;;;;;8.00;6.00;;;;;;;;4999535;28;45493;-39
2023/10/18 03:11:12;;;;;;;;;8.33;7.33;;;;;;;;4999154;28;45290;-39
2023/10/18 03:13:37;;;;;;;;;8.33;8.33;;;;;;;;5004870;28;45508;-40
2023/10/18 03:18:44;;;;;;;;;9.00;6.67;;;;;;;;4999185;28;45425;-40
2023/10/18 03:21:20;;;;;;;;;10.00;9.00;;;;;;;;4997414;28;45692;-40
2023/10/18 03:23:45;;;;;;;;;7.33;7.33;;;;;;;;4999446;28;45440;-40
2023/10/18 03:26:11;;;;;;;;;6.00;6.00;;;;;;;;4999334;28;45446;-40
2023/10/18 03:28:40;;;;;;;;;10.00;7.00;;;;;;;;4999287;28;46457;-40
2023/10/18 03:31:21;;;;;;;;;7.67;7.67;;;;;;;;4992051;28;46347;-40
2023/10/18 03:33:48;;;;;;;;;5.00;5.00;;;;;;;;4999123;28;45534;-41
2023/10/18 03:36:25;;;;;;;;;7.00;6.33;;;;;;;;4994227;28;45520;-40
2023/10/18 03:39:32;;;;;;;;;7.67;6.00;;;;;;;;4999347;28;47103;-40
2023/10/18 03:41:42;;;;;;;;;5.67;4.00;;;;;;;;4995868;28;45507;-40
2023/10/18 03:44:07;;;;;;;;;8.33;8.00;;;;;;;;5001919;28;45530;-40
2023/10/18 03:46:49;;;;;;;;;7.00;6.00;;;;;;;;5001607;28;45381;-40
2023/10/18 03:49:23;;;;;;;;;6.33;6.33;;;;;;;;4998400;28;46168;-40
2023/10/18 03:51:49;;;;;;;;;7.33;6.00;;;;;;;;5003289;28;45233;-40
2023/10/18 03:54:14;;;;;;;;;7.00;6.33;;;;;;;;4999909;28;45321;-40
2023/10/18 03:56:42;;;;;;;;;9.00;8.33;;;;;;;;5002148;28;45464;-40
2023/10/18 03:59:25;;;;;;;;;10.67;10.67;;;;;;;;5012034;28;47246;-40
2023/10/18 04:04:37;;;;;;;;;5.00;5.00;;;;;;;;5013862;28;45308;-41
2023/10/18 04:07:12;;;;;;;;;10.00;8.00;;;;;;;;5016638;28;45467;-40
2023/10/18 04:09:37;;;;;;;;;6.67;6.67;;;;;;;;5017865;28;45483;-40
2023/10/18 04:12:04;;;;;;;;;8.33;7.33;;;;;;;;5011339;28;45823;-40
2023/10/18 04:14:29;;;;;;;;;8.00;8.00;;;;;;;;5018367;28;45410;-40
2023/10/18 04:16:57;;;;;;;;;7.67;7.67;;;;;;;;5018448;28;45320;-40
2023/10/18 04:19:22;;;;;;;;;7.33;7.33;;;;;;;;5018546;28;46510;-39
2023/10/18 04:21:52;;;;;;;;;7.00;7.00;;;;;;;;5017648;28;45309;-39
2023/10/18 04:24:20;;;;;;;;;9.67;8.33;;;;;;;;5018024;28;45388;-39
2023/10/18 04:26:45;;;;;;;;;6.00;6.00;;;;;;;;5018322;28;45471;-40
2023/10/18 04:29:10;;;;;;;;;7.67;7.67;;;;;;;;5017643;28;46276;-39
2023/10/18 04:31:35;;;;;;;;;8.67;8.00;;;;;;;;5000138;28;45441;-39
2023/10/18 04:34:03;;;;;;;;;8.00;7.00;;;;;;;;5017690;28;45371;-39
2023/10/18 04:36:33;;;;;;;;;10.00;10.00;;;;;;;;5017793;28;45709;-38
2023/10/18 04:38:59;;;;;;;;;8.00;8.00;;;;;;;;5017682;28;46209;-39
2023/10/18 04:41:26;;;;;;;;;6.67;6.67;;;;;;;;5017268;28;45461;-38
2023/10/18 04:43:53;;;;;;;;;8.67;7.33;;;;;;;;5017370;28;45494;-38
2023/10/18 04:46:22;;;;;;;;;7.00;7.00;;;;;;;;5026469;28;45379;-41
2023/10/18 04:54:11;;;;;;;;;8.67;8.00;;;;;;;;5021136;28;45279;-41
2023/10/18 04:56:46;;;;;;;;;10.00;7.67;;;;;;;;5022896;28;45488;-40
2023/10/18 05:04:20;;;;;;;;;10.00;8.00;;;;;;;;5036683;28;45360;-41
2023/10/18 05:06:52;;;;;;;;;8.33;8.33;;;;;;;;5023367;28;45285;-40
2023/10/18 05:09:18;;;;;;;;;6.67;6.67;;;;;;;;5002702;28;47303;-41
2023/10/18 05:11:55;;;;;;;;;9.00;9.00;;;;;;;;5021613;28;45475;-41
2023/10/18 05:14:35;;;;;;;;;7.33;6.00;;;;;;;;5020444;28;45286;-40
2023/10/18 05:17:02;;;;;;;;;12.33;9.00;;;;;;;;5014225;28;45695;-40
2023/10/18 05:19:31;;;;;;;;;8.67;8.00;;;;;;;;5019318;28;47034;-42
2023/10/18 05:21:56;;;;;;;;;8.67;7.00;;;;;;;;5006511;28;45190;-41
2023/10/18 05:24:22;;;;;;;;;7.67;6.00;;;;;;;;5019373;28;45406;-40
2023/10/18 05:26:54;;;;;;;;;9.67;8.67;;;;;;;;5020513;28;45297;-41
2023/10/18 05:29:19;;;;;;;;;10.33;9.67;;;;;;;;5013588;28;46071;-40
2023/10/18 05:32:05;;;;;;;;;8.33;7.00;;;;;;;;5015481;28;45414;-41
2023/10/18 05:34:49;;;;;;;;;10.33;8.00;;;;;;;;5026543;28;45467;-40
2023/10/18 05:37:14;;;;;;;;;9.00;9.00;;;;;;;;5010126;28;45579;-40
2023/10/18 05:39:49;;;;;;;;;13.67;10.67;;;;;;;;5017391;28;47171;-41
2023/10/18 05:42:20;;;;;;;;;8.33;8.33;;;;;;;;5018824;28;45459;-41
2023/10/18 05:44:47;;;;;;;;;13.33;9.33;;;;;;;;5017983;28;45748;-41
2023/10/18 05:47:13;;;;;;;;;9.33;8.00;;;;;;;;5003318;28;45796;-41
2023/10/18 05:49:41;;;;;;;;;10.00;10.00;;;;;;;;5013661;28;45555;-41
2023/10/18 05:52:49;;;;;;;;;7.67;7.67;;;;;;;;5009571;28;45391;-41
2023/10/18 05:54:56;;;;;;;;;11.33;9.67;;;;;;;;5016175;28;45568;-43
2023/10/18 05:57:23;;;;;;;;;10.33;9.33;;;;;;;;5011766;28;45342;-48
2023/10/18 05:59:49;;;;;;;;;12.00;10.00;;;;;;;;5011739;28;45653;-47
2023/10/18 06:02:22;;;;;;;;;11.33;9.00;;;;;;;;5024251;28;45407;-46
2023/10/18 06:04:47;;;;;;;;;9.33;9.33;;;;;;;;5015757;28;45612;-50
2023/10/18 06:07:13;;;;;;;;;10.67;9.33;;;;;;;;5011645;28;45385;-51
2023/10/18 06:09:46;;;;;;;;;12.67;11.00;;;;;;;;5024398;28;47101;-48
2023/10/18 06:12:21;;;;;;;;;10.00;10.00;;;;;;;;5019682;28;45475;-49
2023/10/18 06:14:46;;;;;;;;;9.00;8.00;;;;;;;;5016196;28;45509;-50
2023/10/18 06:17:19;;;;;;;;;13.67;11.00;;;;;;;;5018374;28;45506;-48
2023/10/18 06:19:45;;;;;;;;;11.33;11.00;;;;;;;;5019655;28;46348;-49
2023/10/18 06:22:29;;;;;;;;;8.67;8.33;;;;;;;;5020696;28;45364;-48
2023/10/18 06:24:57;;;;;;;;;9.00;8.67;;;;;;;;5019992;28;45373;-49
2023/10/18 06:27:22;;;;;;;;;11.00;11.00;;;;;;;;5018230;28;45316;-47
2023/10/18 06:29:51;;;;;;;;;8.33;8.00;;;;;;;;5008711;28;46019;-48
2023/10/18 06:32:17;;;;;;;;;8.33;8.00;;;;;;;;5007206;28;45348;-47
2023/10/18 06:34:43;;;;;;;;;9.67;9.33;;;;;;;;5019384;28;45448;-49
2023/10/18 06:37:09;;;;;;;;;8.00;8.00;;;;;;;;5009204;28;45582;-47
2023/10/18 06:39:35;;;;;;;;;15.00;11.00;;;;;;;;5017893;28;45474;-48
2023/10/18 06:42:06;;;;;;;;;10.00;8.00;;;;;;;;5018907;28;45283;-47
2023/10/18 06:44:33;;;;;;;;;11.00;9.67;;;;;;;;5019987;28;45749;-50
2023/10/18 06:47:01;;;;;;;;;9.00;9.00;;;;;;;;5018966;28;45576;-47
2023/10/18 06:49:26;;;;;;;;;13.00;11.00;;;;;;;;5003575;28;47485;-48
2023/10/18 06:51:51;;;;;;;;;12.00;10.67;;;;;;;;5012193;28;45826;-50
2023/10/18 06:54:30;;;;;;;;;11.67;10.33;;;;;;;;5020142;28;45374;-47
2023/10/18 06:56:57;;;;;;;;;9.00;8.67;;;;;;;;5011615;28;45461;-48
2023/10/18 06:59:26;;;;;;;;;11.33;10.00;;;;;;;;5011394;28;45427;-48
2023/10/18 07:01:54;;;;;;;;;7.67;7.67;;;;;;;;5006441;28;45494;-48
2023/10/18 07:04:28;;;;;;;;;9.67;9.67;;;;;;;;5003774;28;45431;-47
2023/10/18 07:06:56;;;;;;;;;10.33;9.67;;;;;;;;5002489;28;45455;-47
2023/10/18 07:09:36;;;;;;;;;12.00;10.00;;;;;;;;4996327;28;46067;-48
2023/10/18 07:12:04;;;;;;;;;9.33;9.33;;;;;;;;5021886;28;45543;-48
2023/10/18 07:14:31;;;;;;;;;9.00;8.00;;;;;;;;5025350;28;45483;-47
2023/10/18 07:17:00;;;;;;;;;10.33;8.33;;;;;;;;5004732;28;45929;-47
2023/10/18 07:19:47;;;;;;;;;10.67;9.33;;;;;;;;5019700;28;46533;-48
2023/10/18 07:22:17;;;;;;;;;12.00;9.00;;;;;;;;5010489;28;49869;-49
2023/10/18 07:24:43;;;;;;;;;8.00;8.00;;;;;;;;5020751;28;46740;-48
2023/10/18 07:27:11;;;;;;;;;10.67;10.33;;;;;;;;5022794;28;45336;-47
2023/10/18 07:29:37;;;;;;;;;12.33;10.67;;;;;;;;5026241;28;47260;-48
2023/10/18 07:32:06;;;;;;;;;11.33;10.00;;;;;;;;5014498;28;45760;-49
2023/10/18 07:34:32;;;;;;;;;11.33;9.00;;;;;;;;5008259;28;45772;-46
2023/10/18 07:36:57;;;;;;;;;11.33;11.33;;;;;;;;5017190;28;45509;-48
2023/10/18 07:39:24;;;;;;;;;11.00;9.33;;;;;;;;5019317;28;46202;-48
2023/10/18 07:41:52;;;;;;;;;10.33;10.33;;;;;;;;5020213;28;45434;-49
2023/10/18 07:44:18;;;;;;;;;11.00;9.67;;;;;;;;4999021;28;45591;-47
2023/10/18 07:46:43;;;;;;;;;11.33;11.33;;;;;;;;5022013;28;45500;-47
2023/10/18 07:49:13;;;;;;;;;10.00;10.00;;;;;;;;5014208;28;45373;-48
2023/10/18 07:51:43;;;;;;;;;11.00;10.67;;;;;;;;5018143;28;45569;-50
2023/10/18 07:54:09;;;;;;;;;12.67;12.33;;;;;;;;5019144;28;45418;-49
2023/10/18 07:56:40;;;;;;;;;9.67;9.67;;;;;;;;5019077;28;45557;-48
2023/10/18 08:04:47;;;;;;;;;14.33;10.00;;;;;;;;5013721;28;45391;-48
2023/10/18 08:07:15;;;;;;;;;8.33;8.33;;;;;;;;5018817;28;45350;-46
2023/10/18 08:09:42;;;;;;;;;18.00;13.00;;;;;;;;5021357;28;45426;-48
2023/10/18 08:12:08;;;;;;;;;12.67;12.33;;;;;;;;5024641;28;45268;-48
2023/10/18 08:14:34;;;;;;;;;14.33;11.33;;;;;;;;5030190;28;45298;-49
2023/10/18 08:17:08;;;;;;;;;11.67;9.67;;;;;;;;5017481;28;45318;-47
2023/10/18 08:19:43;;;;;;;;;14.33;10.33;;;;;;;;5014114;28;45656;-50
2023/10/18 08:24:37;;;;;;;;;11.00;10.67;;;;;;;;5023317;28;45426;-48
2023/10/18 08:27:12;;;;;;;;;11.33;11.33;;;;;;;;5018701;28;45533;-47
2023/10/18 08:29:37;;;;;;;;;9.33;9.00;;;;;;;;5018443;28;45563;-47
2023/10/18 08:32:16;;;;;;;;;11.67;9.33;;;;;;;;5008017;28;45382;-47
2023/10/18 08:34:42;;;;;;;;;11.00;8.33;;;;;;;;5029369;28;45480;-46
2023/10/18 08:37:11;;;;;;;;;9.33;9.33;;;;;;;;5024721;28;45429;-50
2023/10/18 08:39:39;;;;;;;;;9.67;9.67;;;;;;;;4997148;28;46465;-48
2023/10/18 08:42:10;;;;;;;;;10.00;10.00;;;;;;;;5020250;28;45569;-47
2023/10/18 08:44:38;;;;;;;;;9.33;7.00;;;;;;;;5023776;28;45759;-46
2023/10/18 08:49:34;;;;;;;;;10.33;9.33;;;;;;;;5003312;28;45357;-48
2023/10/18 08:52:08;;;;;;;;;14.00;10.33;;;;;;;;5021944;28;45367;-48
2023/10/18 08:54:34;;;;;;;;;10.67;10.67;;;;;;;;5022654;28;45457;-49
2023/10/18 08:57:06;;;;;;;;;10.33;8.00;;;;;;;;5024378;28;45456;-48
2023/10/18 08:59:39;;;;;;;;;9.33;9.00;;;;;;;;5021057;28;45534;-47
2023/10/18 09:02:23;;;;;;;;;8.00;7.33;;;;;;;;5019202;28;45503;-46
2023/10/18 09:04:52;;;;;;;;;8.33;8.33;;;;;;;;5011637;28;45481;-50
2023/10/18 09:07:21;;;;;;;;;9.00;5.00;;;;;;;;5014352;28;45499;-48
2023/10/18 09:09:53;;;;;;;;;8.00;7.00;;;;;;;;5019912;28;45604;-48
2023/10/18 09:12:31;;;;;;;;;10.00;8.00;;;;;;;;5018596;28;45463;-49
2023/10/18 09:14:58;;;;;;;;;7.00;7.00;;;;;;;;5018635;28;45510;-47
2023/10/18 09:17:23;;;;;;;;;7.00;5.00;;;;;;;;5019325;28;45266;-47
2023/10/18 09:19:53;;;;;;;;;5.67;5.67;;;;;;;;4993460;28;47358;-48
2023/10/18 09:22:19;;;;;;;;;5.00;5.00;;;;;;;;5011259;28;45178;-51
2023/10/18 09:24:45;;;;;;;;;8.00;6.67;;;;;;;;5020465;28;45450;-49
2023/10/18 09:27:12;;;;;;;;;6.67;6.33;;;;;;;;5019253;28;45641;-50
2023/10/18 09:29:37;;;;;;;;;6.00;6.00;;;;;;;;5009594;28;46351;-48
2023/10/18 09:32:04;;;;;;;;;7.33;6.67;;;;;;;;5022354;28;45423;-48
2023/10/18 09:34:38;;;;;;;;;6.33;6.33;;;;;;;;5018629;28;45550;-49
2023/10/18 09:37:12;;;;;;;;;9.00;7.00;;;;;;;;4981893;28;45428;-47
2023/10/18 09:39:43;;;;;;;;;5.33;5.00;;;;;;;;5017346;28;47136;-50
2023/10/18 09:42:20;;;;;;;;;7.67;6.67;;;;;;;;5018562;28;45490;-48
2023/10/18 09:44:45;;;;;;;;;6.00;6.00;;;;;;;;5019795;28;45448;-47
2023/10/18 09:47:10;;;;;;;;;6.33;5.67;;;;;;;;5001690;28;45246;-49
2023/10/18 09:49:38;;;;;;;;;7.67;6.00;;;;;;;;5013177;28;46399;-48
2023/10/18 09:52:04;;;;;;;;;9.00;6.67;;;;;;;;5017699;28;45452;-48
2023/10/18 09:54:34;;;;;;;;;8.00;7.00;;;;;;;;5001698;28;45328;-48
2023/10/18 09:57:01;;;;;;;;;7.00;5.00;;;;;;;;5015290;28;45680;-48
2023/10/18 09:59:30;;;;;;;;;10.00;8.00;;;;;;;;5017002;28;46260;-48
2023/10/18 10:02:00;;;;;;;;;8.67;8.33;;;;;;;;5022173;28;45444;-47
2023/10/18 10:04:32;;;;;;;;;5.67;5.00;;;;;;;;5020796;28;45238;-50
2023/10/18 10:07:27;;;;;;;;;8.67;6.33;;;;;;;;5010703;28;45583;-50
2023/10/18 10:09:46;;;;;;;;;7.67;7.00;;;;;;;;5021042;28;46391;-47
2023/10/18 10:12:12;;;;;;;;;6.00;6.00;;;;;;;;5010295;28;45590;-51
2023/10/18 10:14:37;;;;;;;;;8.67;5.67;;;;;;;;5011151;28;45446;-48
2023/10/18 10:17:06;;;;;;;;;7.67;5.33;;;;;;;;5011474;28;45451;-48
2023/10/18 10:19:35;;;;;;;;;5.67;4.67;;;;;;;;5001513;28;46123;-47
2023/10/18 10:22:05;;;;;;;;;6.00;6.00;;;;;;;;5016708;28;45609;-47
2023/10/18 10:24:45;;;;;;;;;5.67;5.67;;;;;;;;5017512;28;45309;-48
2023/10/18 10:30:03;;;;;;;;;10.00;7.33;;;;;;;;5010491;28;45464;-47
2023/10/18 10:32:28;;;;;;;;;6.67;5.67;;;;;;;;5013392;28;45319;-47
2023/10/18 10:35:17;;;;;;;;;6.00;6.00;;;;;;;;5014182;28;45337;-48
2023/10/18 10:37:45;;;;;;;;;5.67;5.67;;;;;;;;5013858;28;45503;-49
2023/10/18 10:40:35;;;;;;;;;5.67;5.33;;;;;;;;5016017;28;45448;-48
2023/10/18 10:43:04;;;;;;;;;9.67;6.67;;;;;;;;5009663;28;45491;-46
2023/10/18 10:45:38;;;;;;;;;5.67;5.67;;;;;;;;5010436;28;45428;-48
2023/10/18 10:48:15;;;;;;;;;8.00;8.00;;;;;;;;5007150;28;45309;-48
2023/10/18 10:50:50;;;;;;;;;6.00;6.00;;;;;;;;5000110;28;47362;-48
2023/10/18 10:53:45;;;;;;;;;10.00;8.00;;;;;;;;5011010;28;45604;-48
2023/10/18 10:56:17;;;;;;;;;8.67;7.33;;;;;;;;5011960;28;45618;-48
2023/10/18 10:58:43;;;;;;;;;9.00;7.33;;;;;;;;5019483;28;45467;-50
2023/10/18 11:01:12;;;;;;;;;11.33;6.00;;;;;;;;5013898;28;46234;-48
2023/10/18 11:06:32;;;;;;;;;5.67;5.33;;;;;;;;5003963;28;45442;-49
2023/10/18 11:08:58;;;;;;;;;7.00;5.67;;;;;;;;5016469;28;45372;-50
2023/10/18 11:11:26;;;;;;;;;8.00;6.33;;;;;;;;5008017;28;45755;-48
2023/10/18 11:13:51;;;;;;;;;7.67;7.00;;;;;;;;5017636;28;45627;-48
2023/10/18 11:16:17;;;;;;;;;7.00;7.00;;;;;;;;5000512;28;45551;-48
2023/10/18 11:18:48;;;;;;;;;5.67;5.00;;;;;;;;5018277;28;45479;-48
2023/10/18 11:21:19;;;;;;;;;11.67;7.33;;;;;;;;5012449;28;46618;-48
2023/10/18 11:23:46;;;;;;;;;8.33;6.67;;;;;;;;5000791;28;45321;-51
2023/10/18 11:26:19;;;;;;;;;6.00;6.00;;;;;;;;5014339;28;45741;-48
2023/10/18 11:28:45;;;;;;;;;6.67;6.67;;;;;;;;5017456;28;45494;-47
2023/10/18 11:31:10;;;;;;;;;8.67;7.00;;;;;;;;5017588;28;45540;-47
2023/10/18 11:33:46;;;;;;;;;6.00;5.00;;;;;;;;5006035;28;45300;-50
2023/10/18 11:36:12;;;;;;;;;7.00;7.00;;;;;;;;5000844;28;45664;-47
2023/10/18 11:38:38;;;;;;;;;6.33;6.33;;;;;;;;4996008;28;45357;-48
2023/10/18 11:41:11;;;;;;;;;6.00;6.00;;;;;;;;5003380;28;47382;-50
2023/10/18 11:43:40;;;;;;;;;8.00;6.33;;;;;;;;5019633;28;45392;-48
2023/10/18 11:46:08;;;;;;;;;6.33;6.33;;;;;;;;5011528;28;45213;-48
2023/10/18 11:48:34;;;;;;;;;7.00;7.00;;;;;;;;5008875;28;45649;-50
2023/10/18 11:51:02;;;;;;;;;9.00;8.33;;;;;;;;5011661;28;46598;-47
2023/10/18 11:53:27;;;;;;;;;9.00;9.00;;;;;;;;5017291;28;45534;-49
2023/10/18 11:55:55;;;;;;;;;7.00;7.00;;;;;;;;5011602;28;45293;-48
2023/10/18 11:58:21;;;;;;;;;8.67;7.67;;;;;;;;5008766;28;45535;-50
2023/10/18 12:00:47;;;;;;;;;7.00;6.33;;;;;;;;5010625;28;46901;-46
2023/10/18 12:03:13;;;;;;;;;10.00;8.33;;;;;;;;5015086;28;45503;-50
2023/10/18 12:05:42;;;;;;;;;8.00;8.00;;;;;;;;5010191;28;45969;-50
2023/10/18 12:08:12;;;;;;;;;7.00;7.00;;;;;;;;5001805;28;45428;-52
2023/10/18 12:10:38;;;;;;;;;6.67;6.67;;;;;;;;5020313;28;45652;-49
2023/10/18 12:13:06;;;;;;;;;7.00;7.00;;;;;;;;5000863;28;45500;-49
2023/10/18 12:15:33;;;;;;;;;6.33;6.33;;;;;;;;5005131;28;45644;-48
2023/10/18 12:18:03;;;;;;;;;6.67;6.67;;;;;;;;5018782;28;45495;-49
2023/10/18 12:20:35;;;;;;;;;9.00;7.33;;;;;;;;5000834;28;45550;-48
2023/10/18 12:23:02;;;;;;;;;6.00;6.00;;;;;;;;5019712;28;46248;-47
2023/10/18 12:25:27;;;;;;;;;10.00;7.00;;;;;;;;5023355;28;45571;-47
2023/10/18 12:27:52;;;;;;;;;10.00;9.00;;;;;;;;5020335;28;45860;-50
2023/10/18 12:30:38;;;;;;;;;6.33;5.67;;;;;;;;5003131;28;47279;-48
2023/10/18 12:33:06;;;;;;;;;5.00;5.00;;;;;;;;5019880;28;45439;-49
2023/10/18 12:35:34;;;;;;;;;11.67;8.00;;;;;;;;5016421;28;45539;-47
2023/10/18 12:37:59;;;;;;;;;11.33;10.00;;;;;;;;5018161;28;45912;-47
2023/10/18 12:40:32;;;;;;;;;10.00;7.00;;;;;;;;5000034;28;47696;-49
2023/10/18 12:43:00;;;;;;;;;8.33;5.67;;;;;;;;4992641;28;45553;-48
2023/10/18 12:45:25;;;;;;;;;9.00;6.00;;;;;;;;5020239;28;45309;-50
2023/10/18 12:47:51;;;;;;;;;7.33;7.00;;;;;;;;5021006;28;45444;-48
2023/10/18 12:50:18;;;;;;;;;5.67;5.67;;;;;;;;4998769;28;48587;-48
2023/10/18 12:52:44;;;;;;;;;8.00;7.00;;;;;;;;5002783;28;45409;-48
2023/10/18 12:57:54;;;;;;;;;10.00;7.67;;;;;;;;5022852;28;45550;-50
2023/10/18 13:00:23;;;;;;;;;8.33;8.33;;;;;;;;5004182;28;45931;-51
2023/10/18 13:03:21;;;;;;;;;6.67;6.33;;;;;;;;5008653;28;45275;-49
2023/10/18 13:05:43;;;;;;;;;6.00;6.00;;;;;;;;5004103;28;45436;-49
2023/10/18 13:08:17;;;;;;;;;6.33;6.33;;;;;;;;5011982;28;45533;-48
2023/10/18 13:10:48;;;;;;;;;6.00;6.00;;;;;;;;5015695;28;46878;-46
2023/10/18 13:13:16;;;;;;;;;5.00;5.00;;;;;;;;4992456;28;45410;-47
2023/10/18 13:15:41;;;;;;;;;8.33;7.33;;;;;;;;5008599;28;45476;-47
2023/10/18 13:18:07;;;;;;;;;4.67;4.67;;;;;;;;5018646;28;45996;-47
2023/10/18 13:20:35;;;;;;;;;8.33;6.67;;;;;;;;5019424;28;45487;-47
2023/10/18 13:23:01;;;;;;;;;8.00;7.00;;;;;;;;5019809;28;45377;-47
2023/10/18 13:25:36;;;;;;;;;7.00;7.00;;;;;;;;5020313;28;45279;-47
2023/10/18 13:28:05;;;;;;;;;5.00;5.00;;;;;;;;5008996;28;45448;-47
2023/10/18 13:30:43;;;;;;;;;6.00;5.67;;;;;;;;5017861;28;46866;-46
2023/10/18 13:33:11;;;;;;;;;6.33;6.33;;;;;;;;5001389;28;46273;-46
2023/10/18 13:35:39;;;;;;;;;6.33;5.00;;;;;;;;5020381;28;45498;-49
2023/10/18 13:38:04;;;;;;;;;7.67;7.67;;;;;;;;5016745;28;46724;-47
2023/10/18 13:40:29;;;;;;;;;9.33;8.00;;;;;;;;5015687;28;45399;-48
2023/10/18 13:42:54;;;;;;;;;7.67;7.00;;;;;;;;5018796;28;45371;-47
2023/10/18 13:45:20;;;;;;;;;7.33;7.33;;;;;;;;5019550;28;45399;-48
2023/10/18 13:47:45;;;;;;;;;7.67;6.00;;;;;;;;5017195;28;45691;-47
2023/10/18 13:50:11;;;;;;;;;6.33;6.33;;;;;;;;4993406;28;47499;-47
2023/10/18 13:52:42;;;;;;;;;6.00;6.00;;;;;;;;5002258;28;45432;-47
2023/10/18 13:55:07;;;;;;;;;6.00;6.00;;;;;;;;5018249;28;45482;-47
2023/10/18 13:57:33;;;;;;;;;7.67;7.67;;;;;;;;5021790;28;45515;-50
2023/10/18 14:00:01;;;;;;;;;5.00;5.00;;;;;;;;5023014;28;46123;-47
2023/10/18 14:02:26;;;;;;;;;8.00;6.33;;;;;;;;5018322;28;45515;-47
2023/10/18 14:04:52;;;;;;;;;6.33;5.67;;;;;;;;5010343;28;45827;-50
2023/10/18 14:07:18;;;;;;;;;6.67;6.33;;;;;;;;5024632;28;45480;-49
2023/10/18 14:09:44;;;;;;;;;5.00;5.00;;;;;;;;5007065;28;46248;-48
2023/10/18 14:12:09;;;;;;;;;6.67;4.00;;;;;;;;5022281;28;45268;-47
2023/10/18 14:14:36;;;;;;;;;6.00;6.00;;;;;;;;5009380;28;45761;-48
2023/10/18 14:17:03;;;;;;;;;5.33;5.00;;;;;;;;5011536;28;45401;-50
2023/10/18 14:19:29;;;;;;;;;4.00;4.00;;;;;;;;5017639;28;46143;-47
2023/10/18 14:21:54;;;;;;;;;4.00;4.00;;;;;;;;5002061;28;45508;-47
2023/10/18 14:24:25;;;;;;;;;3.33;3.33;;;;;;;;5010999;28;45843;-47
2023/10/18 14:26:50;;;;;;;;;4.00;4.00;;;;;;;;5017799;28;45431;-48
2023/10/18 14:29:15;;;;;;;;;3.00;3.00;;;;;;;;5019196;28;45270;-47
2023/10/18 14:31:41;;;;;;;;;4.67;3.00;;;;;;;;5018530;28;46643;-48
2023/10/18 14:34:07;;;;;;;;;4.00;3.00;;;;;;;;5018223;28;45293;-47
2023/10/18 14:36:32;;;;;;;;;2.33;2.33;;;;;;;;5018313;28;45507;-48
2023/10/18 14:38:58;;;;;;;;;3.00;3.00;;;;;;;;4998049;28;46327;-50
2023/10/18 14:41:24;;;;;;;;;5.00;2.67;;;;;;;;5017733;28;45556;-48
2023/10/18 14:43:54;;;;;;;;;2.67;2.67;;;;;;;;5010455;28;45460;-51
2023/10/18 14:46:23;;;;;;;;;3.00;3.00;;;;;;;;4996772;28;45883;-48
2023/10/18 14:48:48;;;;;;;;;3.67;3.67;;;;;;;;4990558;28;47051;-47
2023/10/18 14:51:14;;;;;;;;;3.33;3.33;;;;;;;;5019603;28;45403;-48
2023/10/18 14:53:42;;;;;;;;;3.33;1.00;;;;;;;;5000477;28;46220;-53
2023/10/18 14:56:14;;;;;;;;;1.67;1.67;;;;;;;;5020932;28;45321;-48
2023/10/18 14:58:40;;;;;;;;;2.00;2.00;;;;;;;;5019209;28;45440;-48
2023/10/18 15:01:05;;;;;;;;;3.00;3.00;;;;;;;;5029169;28;45398;-48
2023/10/18 15:03:31;;;;;;;;;2.00;2.00;;;;;;;;4995816;28;45630;-51
2023/10/18 15:05:57;;;;;;;;;5.00;3.00;;;;;;;;5005792;28;45890;-51
2023/10/18 15:08:23;;;;;;;;;3.00;3.00;;;;;;;;5017007;28;45576;-49
2023/10/18 15:10:49;;;;;;;;;3.67;3.67;;;;;;;;5013047;28;45276;-48
2023/10/18 15:13:16;;;;;;;;;3.00;3.00;;;;;;;;5015825;28;45308;-49
2023/10/18 15:15:41;;;;;;;;;3.00;3.00;;;;;;;;5012933;28;45441;-47
2023/10/18 15:18:08;;;;;;;;;4.00;3.00;;;;;;;;5015205;28;46231;-50
2023/10/18 15:20:34;;;;;;;;;6.00;5.00;;;;;;;;5006018;28;45516;-48
2023/10/18 15:22:59;;;;;;;;;3.00;3.00;;;;;;;;5028797;28;46107;-47
2023/10/18 15:25:24;;;;;;;;;4.00;2.33;;;;;;;;5010546;28;45546;-48